sensor_id;sensor_type;location;lat;lon;timestamp;pressure;altitude;pressure_sealevel;temperature;humidity
52745;BME280;38637;49.984;20.426;2023-07-24T00:01:38;98771.06;;;23.28;49.53
52745;BME280;38637;49.984;20.426;2023-07-24T00:04:04;98771.44;;;23.27;49.20
52745;BME280;38637;49.984;20.426;2023-07-24T00:06:29;98770.59;;;23.26;49.64
52745;BME280;38637;49.984;20.426;2023-07-24T00:08:54;98769.38;;;23.24;49.72
52745;BME280;38637;49.984;20.426;2023-07-24T00:11:20;98758.94;;;23.21;49.66
52745;BME280;38637;49.984;20.426;2023-07-24T00:13:45;98768.44;;;23.20;49.82
52745;BME280;38637;49.984;20.426;2023-07-24T00:16:10;98768.44;;;23.20;50.02
52745;BME280;38637;49.984;20.426;2023-07-24T00:18:35;98763.69;;;23.20;50.07
52745;BME280;38637;49.984;20.426;2023-07-24T00:21:01;98761.28;;;23.19;50.40
52745;BME280;38637;49.984;20.426;2023-07-24T00:23:26;98758.50;;;23.19;50.34
52745;BME280;38637;49.984;20.426;2023-07-24T00:25:52;98762.06;;;23.19;50.38
52745;BME280;38637;49.984;20.426;2023-07-24T00:28:18;98756.03;;;23.17;50.45
52745;BME280;38637;49.984;20.426;2023-07-24T00:30:43;98751.72;;;23.20;50.46
52745;BME280;38637;49.984;20.426;2023-07-24T00:33:08;98756.50;;;23.19;50.64
52745;BME280;38637;49.984;20.426;2023-07-24T00:35:34;98757.69;;;23.18;51.19
52745;BME280;38637;49.984;20.426;2023-07-24T00:37:59;98750.06;;;23.15;50.86
52745;BME280;38637;49.984;20.426;2023-07-24T00:40:24;98738.91;;;23.15;51.05
52745;BME280;38637;49.984;20.426;2023-07-24T00:42:50;98743.75;;;23.18;51.31
52745;BME280;38637;49.984;20.426;2023-07-24T00:45:15;98741.78;;;23.19;51.18
52745;BME280;38637;49.984;20.426;2023-07-24T00:47:42;98739.78;;;23.19;51.25
52745;BME280;38637;49.984;20.426;2023-07-24T00:50:08;98740.59;;;23.20;51.11
52745;BME280;38637;49.984;20.426;2023-07-24T00:52:34;98740.59;;;23.20;51.30
52745;BME280;38637;49.984;20.426;2023-07-24T00:55:00;98741.84;;;23.22;51.59
52745;BME280;38637;49.984;20.426;2023-07-24T00:57:26;98734.69;;;23.21;51.25
52745;BME280;38637;49.984;20.426;2023-07-24T00:59:51;98738.72;;;23.24;51.31
52745;BME280;38637;49.984;20.426;2023-07-24T01:02:16;98734.75;;;23.25;51.45
52745;BME280;38637;49.984;20.426;2023-07-24T01:04:42;98737.53;;;23.25;51.64
52745;BME280;38637;49.984;20.426;2023-07-24T01:07:08;98739.94;;;23.26;51.56
52745;BME280;38637;49.984;20.426;2023-07-24T01:09:33;98731.50;;;23.23;51.89
52745;BME280;38637;49.984;20.426;2023-07-24T01:12:04;98727.56;;;23.24;51.73
52745;BME280;38637;49.984;20.426;2023-07-24T01:14:44;98728.38;;;23.24;51.90
52745;BME280;38637;49.984;20.426;2023-07-24T01:17:15;98725.13;;;23.22;52.15
52745;BME280;38637;49.984;20.426;2023-07-24T01:19:49;98721.91;;;23.20;52.20
52745;BME280;38637;49.984;20.426;2023-07-24T01:27:26;98724.19;;;23.14;52.24
52745;BME280;38637;49.984;20.426;2023-07-24T01:29:52;98728.09;;;23.13;52.15
52745;BME280;38637;49.984;20.426;2023-07-24T01:32:18;98724.06;;;23.11;52.40
52745;BME280;38637;49.984;20.426;2023-07-24T01:34:44;98728.09;;;23.13;52.57
52745;BME280;38637;49.984;20.426;2023-07-24T01:37:11;98726.50;;;23.12;52.28
52745;BME280;38637;49.984;20.426;2023-07-24T01:39:37;98721.41;;;23.14;52.65
52745;BME280;38637;49.984;20.426;2023-07-24T01:42:04;98730.19;;;23.16;52.80
52745;BME280;38637;49.984;20.426;2023-07-24T01:44:29;98726.59;;;23.16;52.91
52745;BME280;38637;49.984;20.426;2023-07-24T01:46:55;98725.41;;;23.17;52.87
52745;BME280;38637;49.984;20.426;2023-07-24T01:49:20;98722.63;;;23.17;53.28
52745;BME280;38637;49.984;20.426;2023-07-24T01:51:45;98718.69;;;23.18;53.22
52745;BME280;38637;49.984;20.426;2023-07-24T01:54:11;98715.53;;;23.20;53.61
52745;BME280;38637;49.984;20.426;2023-07-24T01:56:36;98720.66;;;23.17;53.22
52745;BME280;38637;49.984;20.426;2023-07-24T01:59:02;98723.06;;;23.19;53.26
52745;BME280;38637;49.984;20.426;2023-07-24T02:01:28;98738.25;;;23.22;53.32
52745;BME280;38637;49.984;20.426;2023-07-24T02:03:53;98716.31;;;23.20;53.60
52745;BME280;38637;49.984;20.426;2023-07-24T02:06:18;98719.22;;;23.24;53.76
52745;BME280;38637;49.984;20.426;2023-07-24T02:08:43;98716.06;;;23.25;53.42
52745;BME280;38637;49.984;20.426;2023-07-24T02:11:17;98716.88;;;23.26;53.64
52745;BME280;38637;49.984;20.426;2023-07-24T02:13:46;98710.94;;;23.27;53.71
52745;BME280;38637;49.984;20.426;2023-07-24T02:16:12;98712.53;;;23.28;53.61
52745;BME280;38637;49.984;20.426;2023-07-24T02:18:42;98713.81;;;23.31;53.47
52745;BME280;38637;49.984;20.426;2023-07-24T02:21:07;98706.25;;;23.31;53.69
52745;BME280;38637;49.984;20.426;2023-07-24T02:23:33;98720.97;;;23.32;54.19
52745;BME280;38637;49.984;20.426;2023-07-24T02:25:59;98714.25;;;23.33;54.05
52745;BME280;38637;49.984;20.426;2023-07-24T02:28:24;98713.44;;;23.32;54.27
52745;BME280;38637;49.984;20.426;2023-07-24T02:30:50;98713.44;;;23.32;54.05
52745;BME280;38637;49.984;20.426;2023-07-24T02:33:17;98696.28;;;23.30;54.25
52745;BME280;38637;49.984;20.426;2023-07-24T02:35:42;98703.91;;;23.33;54.40
52745;BME280;38637;49.984;20.426;2023-07-24T02:38:08;98702.75;;;23.34;54.60
52745;BME280;38637;49.984;20.426;2023-07-24T02:40:33;98704.34;;;23.35;54.32
52745;BME280;38637;49.984;20.426;2023-07-24T02:42:59;98710.75;;;23.36;54.31
52745;BME280;38637;49.984;20.426;2023-07-24T02:45:24;98713.53;;;23.36;54.59
52745;BME280;38637;49.984;20.426;2023-07-24T02:47:49;98719.09;;;23.36;54.93
52745;BME280;38637;49.984;20.426;2023-07-24T02:50:15;98719.91;;;23.36;54.90
52745;BME280;38637;49.984;20.426;2023-07-24T02:52:40;98725.47;;;23.36;54.67
52745;BME280;38637;49.984;20.426;2023-07-24T02:55:05;98724.31;;;23.37;54.71
52745;BME280;38637;49.984;20.426;2023-07-24T02:57:31;98714.75;;;23.38;54.87
52745;BME280;38637;49.984;20.426;2023-07-24T02:59:56;98723.13;;;23.38;54.98
52745;BME280;38637;49.984;20.426;2023-07-24T03:02:22;98707.59;;;23.37;55.53
52745;BME280;38637;49.984;20.426;2023-07-24T03:04:47;98712.81;;;23.39;55.68
52745;BME280;38637;49.984;20.426;2023-07-24T03:07:12;98723.94;;;23.39;55.39
52745;BME280;38637;49.984;20.426;2023-07-24T03:09:38;98726.38;;;23.40;55.54
52745;BME280;38637;49.984;20.426;2023-07-24T03:12:03;98717.19;;;23.40;56.07
52745;BME280;38637;49.984;20.426;2023-07-24T03:14:28;98720.44;;;23.42;56.26
52745;BME280;38637;49.984;20.426;2023-07-24T03:16:54;98714.03;;;23.42;56.31
52745;BME280;38637;49.984;20.426;2023-07-24T03:19:19;98716.47;;;23.43;56.40
52745;BME280;38637;49.984;20.426;2023-07-24T03:21:45;98706.13;;;23.44;56.50
52745;BME280;38637;49.984;20.426;2023-07-24T03:24:10;98712.16;;;23.46;56.41
52745;BME280;38637;49.984;20.426;2023-07-24T03:26:36;98710.97;;;23.47;56.62
52745;BME280;38637;49.984;20.426;2023-07-24T03:29:01;98714.22;;;23.49;56.53
52745;BME280;38637;49.984;20.426;2023-07-24T03:31:26;98714.63;;;23.51;56.78
52745;BME280;38637;49.984;20.426;2023-07-24T03:33:52;98708.66;;;23.49;57.12
52745;BME280;38637;49.984;20.426;2023-07-24T03:36:17;98723.53;;;23.56;57.04
52745;BME280;38637;49.984;20.426;2023-07-24T03:38:42;98718.41;;;23.58;56.67
52745;BME280;38637;49.984;20.426;2023-07-24T03:41:07;98724.50;;;23.64;56.54
52745;BME280;38637;49.984;20.426;2023-07-24T03:43:33;98719.38;;;23.66;56.44
52745;BME280;38637;49.984;20.426;2023-07-24T03:45:58;98722.69;;;23.72;56.75
52745;BME280;38637;49.984;20.426;2023-07-24T03:48:23;98725.28;;;23.80;56.56
52745;BME280;38637;49.984;20.426;2023-07-24T03:50:58;98715.91;;;23.89;56.69
52745;BME280;38637;49.984;20.426;2023-07-24T03:53:24;98718.41;;;23.94;56.44
52745;BME280;38637;49.984;20.426;2023-07-24T03:55:49;98721.28;;;23.97;56.52
52745;BME280;38637;49.984;20.426;2023-07-24T03:58:14;98723.69;;;23.99;56.58
52745;BME280;38637;49.984;20.426;2023-07-24T04:00:40;98709.72;;;23.99;57.13
52745;BME280;38637;49.984;20.426;2023-07-24T04:03:05;98711.72;;;23.98;57.16
52745;BME280;38637;49.984;20.426;2023-07-24T04:05:30;98726.91;;;24.01;57.08
52745;BME280;38637;49.984;20.426;2023-07-24T04:07:56;98721.69;;;23.99;57.65
52745;BME280;38637;49.984;20.426;2023-07-24T04:10:21;98717.28;;;23.98;57.57
52745;BME280;38637;49.984;20.426;2023-07-24T04:12:46;98730.97;;;24.03;57.51
52745;BME280;38637;49.984;20.426;2023-07-24T04:15:12;98729.41;;;24.06;57.60
52745;BME280;38637;49.984;20.426;2023-07-24T04:17:37;98725.91;;;24.09;57.55
52745;BME280;38637;49.984;20.426;2023-07-24T04:20:05;98731.53;;;24.13;57.89
52745;BME280;38637;49.984;20.426;2023-07-24T04:22:30;98724.84;;;24.17;57.67
52745;BME280;38637;49.984;20.426;2023-07-24T04:24:56;98716.53;;;24.21;57.88
52745;BME280;38637;49.984;20.426;2023-07-24T04:27:21;98717.44;;;24.25;57.67
52745;BME280;38637;49.984;20.426;2023-07-24T04:29:46;98710.38;;;24.31;57.44
52745;BME280;38637;49.984;20.426;2023-07-24T04:32:12;98721.22;;;24.36;57.44
52745;BME280;38637;49.984;20.426;2023-07-24T04:34:37;98723.72;;;24.41;57.40
52745;BME280;38637;49.984;20.426;2023-07-24T04:37:02;98722.72;;;24.49;56.98
52745;BME280;38637;49.984;20.426;2023-07-24T04:39:28;98726.44;;;24.57;57.14
52745;BME280;38637;49.984;20.426;2023-07-24T04:41:53;98728.53;;;24.64;56.97
52745;BME280;38637;49.984;20.426;2023-07-24T04:44:18;98730.66;;;24.70;57.06
52745;BME280;38637;49.984;20.426;2023-07-24T04:46:44;98738.78;;;24.79;56.97
52745;BME280;38637;49.984;20.426;2023-07-24T04:49:09;98729.75;;;24.86;57.12
52745;BME280;38637;49.984;20.426;2023-07-24T04:51:34;98723.06;;;24.94;56.95
52745;BME280;38637;49.984;20.426;2023-07-24T04:53:59;98720.78;;;24.99;57.26
52745;BME280;38637;49.984;20.426;2023-07-24T04:56:25;98726.16;;;25.12;56.72
52745;BME280;38637;49.984;20.426;2023-07-24T04:58:50;98724.34;;;25.19;56.70
52745;BME280;38637;49.984;20.426;2023-07-24T05:01:15;98733.13;;;25.21;56.64
52745;BME280;38637;49.984;20.426;2023-07-24T05:03:41;98722.41;;;25.24;56.67
52745;BME280;38637;49.984;20.426;2023-07-24T05:06:06;98727.22;;;25.27;56.80
52745;BME280;38637;49.984;20.426;2023-07-24T05:08:31;98716.41;;;25.25;56.94
52745;BME280;38637;49.984;20.426;2023-07-24T05:10:57;98726.09;;;25.31;56.69
52745;BME280;38637;49.984;20.426;2023-07-24T05:13:24;98726.91;;;25.32;56.74
52745;BME280;38637;49.984;20.426;2023-07-24T05:15:49;98726.53;;;25.33;56.68
52745;BME280;38637;49.984;20.426;2023-07-24T05:18:14;98731.38;;;25.36;56.31
52745;BME280;38637;49.984;20.426;2023-07-24T05:20:45;98723.78;;;25.37;56.58
52745;BME280;38637;49.984;20.426;2023-07-24T05:23:11;98727.38;;;25.37;56.29
52745;BME280;38637;49.984;20.426;2023-07-24T05:25:37;98717.03;;;25.38;56.27
52745;BME280;38637;49.984;20.426;2023-07-24T05:28:02;98723.19;;;25.51;56.02
52745;BME280;38637;49.984;20.426;2023-07-24T05:30:27;98723.16;;;25.77;55.59
52745;BME280;38637;49.984;20.426;2023-07-24T05:32:53;98717.94;;;26.02;55.00
52745;BME280;38637;49.984;20.426;2023-07-24T05:35:18;98720.97;;;26.24;54.73
52745;BME280;38637;49.984;20.426;2023-07-24T05:37:44;98711.94;;;26.41;54.19
52745;BME280;38637;49.984;20.426;2023-07-24T05:40:09;98717.41;;;26.61;54.21
52745;BME280;38637;49.984;20.426;2023-07-24T05:42:34;98720.31;;;26.75;53.49
52745;BME280;38637;49.984;20.426;2023-07-24T05:45:07;98716.03;;;26.88;53.00
52745;BME280;38637;49.984;20.426;2023-07-24T05:47:32;98712.16;;;27.03;52.50
52745;BME280;38637;49.984;20.426;2023-07-24T05:49:57;98720.69;;;27.18;52.07
52745;BME280;38637;49.984;20.426;2023-07-24T05:52:23;98709.16;;;27.26;51.74
52745;BME280;38637;49.984;20.426;2023-07-24T05:54:48;98718.81;;;27.33;51.64
52745;BME280;38637;49.984;20.426;2023-07-24T05:57:13;98709.69;;;27.43;51.59
52745;BME280;38637;49.984;20.426;2023-07-24T05:59:39;98715.31;;;27.50;51.43
52745;BME280;38637;49.984;20.426;2023-07-24T06:02:04;98717.78;;;27.59;50.75
52745;BME280;38637;49.984;20.426;2023-07-24T06:04:30;98708.19;;;27.63;50.61
52745;BME280;38637;49.984;20.426;2023-07-24T06:06:55;98716.63;;;27.67;50.54
52745;BME280;38637;49.984;20.426;2023-07-24T06:09:21;98714.63;;;27.67;50.51
52745;BME280;38637;49.984;20.426;2023-07-24T06:11:46;98722.19;;;27.60;50.54
52745;BME280;38637;49.984;20.426;2023-07-24T06:14:11;98722.97;;;27.57;50.68
52745;BME280;38637;49.984;20.426;2023-07-24T06:16:36;98712.97;;;27.56;50.89
52745;BME280;38637;49.984;20.426;2023-07-24T06:19:02;98716.94;;;27.55;50.68
52745;BME280;38637;49.984;20.426;2023-07-24T06:21:27;98720.16;;;27.57;50.68
52745;BME280;38637;49.984;20.426;2023-07-24T06:23:52;98723.34;;;27.52;50.74
52745;BME280;38637;49.984;20.426;2023-07-24T06:26:18;98721.31;;;27.48;51.14
52745;BME280;38637;49.984;20.426;2023-07-24T06:28:43;98728.22;;;27.58;51.12
52745;BME280;38637;49.984;20.426;2023-07-24T06:31:08;98726.19;;;27.59;50.88
52745;BME280;38637;49.984;20.426;2023-07-24T06:33:33;98713.41;;;27.65;51.02
52745;BME280;38637;49.984;20.426;2023-07-24T06:35:59;98716.25;;;27.72;50.82
52745;BME280;38637;49.984;20.426;2023-07-24T06:38:24;98719.03;;;27.68;51.05
52745;BME280;38637;49.984;20.426;2023-07-24T06:40:50;98707.09;;;27.82;50.68
52745;BME280;38637;49.984;20.426;2023-07-24T06:43:15;98703.59;;;28.07;50.31
52745;BME280;38637;49.984;20.426;2023-07-24T06:45:41;98703.69;;;28.32;49.55
52745;BME280;38637;49.984;20.426;2023-07-24T06:48:06;98707.34;;;28.43;49.39
52745;BME280;38637;49.984;20.426;2023-07-24T06:50:31;98709.69;;;28.34;49.63
52745;BME280;38637;49.984;20.426;2023-07-24T06:52:56;98708.47;;;28.31;49.93
52745;BME280;38637;49.984;20.426;2023-07-24T06:55:22;98710.13;;;28.39;49.93
52745;BME280;38637;49.984;20.426;2023-07-24T06:57:47;98703.38;;;28.66;49.55
52745;BME280;38637;49.984;20.426;2023-07-24T07:00:13;98716.66;;;28.90;49.77
52745;BME280;38637;49.984;20.426;2023-07-24T07:02:38;98712.63;;;29.20;48.24
52745;BME280;38637;49.984;20.426;2023-07-24T07:05:04;98716.66;;;29.29;48.31
52745;BME280;38637;49.984;20.426;2023-07-24T07:07:30;98709.03;;;29.26;48.15
52745;BME280;38637;49.984;20.426;2023-07-24T07:09:55;98707.44;;;29.18;47.54
52745;BME280;38637;49.984;20.426;2023-07-24T07:12:21;98718.66;;;28.93;47.64
52745;BME280;38637;49.984;20.426;2023-07-24T07:14:46;98722.63;;;28.67;47.46
52745;BME280;38637;49.984;20.426;2023-07-24T07:17:11;98705.28;;;28.33;48.41
52745;BME280;38637;49.984;20.426;2023-07-24T07:19:37;98709.63;;;28.05;49.41
52745;BME280;38637;49.984;20.426;2023-07-24T07:22:02;98722.34;;;27.85;49.73
52745;BME280;38637;49.984;20.426;2023-07-24T07:24:27;98718.72;;;27.81;50.36
52745;BME280;38637;49.984;20.426;2023-07-24T07:26:53;98715.56;;;27.86;50.40
52745;BME280;38637;49.984;20.426;2023-07-24T07:29:18;98708.38;;;27.99;51.59
52745;BME280;38637;49.984;20.426;2023-07-24T07:31:44;98708.81;;;28.08;50.95
52745;BME280;38637;49.984;20.426;2023-07-24T07:34:09;98708.44;;;28.13;50.47
52745;BME280;38637;49.984;20.426;2023-07-24T07:36:34;98699.19;;;28.13;50.17
52745;BME280;38637;49.984;20.426;2023-07-24T07:39:00;98700.41;;;28.12;50.31
52745;BME280;38637;49.984;20.426;2023-07-24T07:41:25;98708.84;;;28.12;50.62
52745;BME280;38637;49.984;20.426;2023-07-24T07:43:50;98714.47;;;28.15;50.71
52745;BME280;38637;49.984;20.426;2023-07-24T07:46:15;98706.88;;;28.20;50.48
52745;BME280;38637;49.984;20.426;2023-07-24T07:48:41;98706.88;;;28.23;50.32
52745;BME280;38637;49.984;20.426;2023-07-24T07:51:06;98714.88;;;28.28;49.73
52745;BME280;38637;49.984;20.426;2023-07-24T07:53:32;98711.28;;;28.31;47.16
52745;BME280;38637;49.984;20.426;2023-07-24T07:55:57;98702.06;;;28.34;45.39
52745;BME280;38637;49.984;20.426;2023-07-24T07:58:23;98698.88;;;28.39;44.80
52745;BME280;38637;49.984;20.426;2023-07-24T08:00:49;98689.22;;;28.26;43.49
52745;BME280;38637;49.984;20.426;2023-07-24T08:03:14;98688.00;;;28.20;44.70
52745;BME280;38637;49.984;20.426;2023-07-24T08:05:40;98686.81;;;28.21;43.08
52745;BME280;38637;49.984;20.426;2023-07-24T08:08:05;98686.81;;;28.25;44.00
52745;BME280;38637;49.984;20.426;2023-07-24T08:10:30;98682.78;;;28.22;43.34
52745;BME280;38637;49.984;20.426;2023-07-24T08:12:56;98687.63;;;28.29;44.38
52745;BME280;38637;49.984;20.426;2023-07-24T08:15:21;98686.00;;;28.28;44.29
52745;BME280;38637;49.984;20.426;2023-07-24T08:17:46;98688.81;;;28.17;43.63
52745;BME280;38637;49.984;20.426;2023-07-24T08:20:12;98690.41;;;28.11;43.73
52745;BME280;38637;49.984;20.426;2023-07-24T08:22:37;98686.38;;;28.08;44.60
52745;BME280;38637;49.984;20.426;2023-07-24T08:25:03;98681.91;;;28.00;44.81
52745;BME280;38637;49.984;20.426;2023-07-24T08:27:28;98683.50;;;27.98;44.73
52745;BME280;38637;49.984;20.426;2023-07-24T08:29:53;98693.59;;;28.09;46.09
52745;BME280;38637;49.984;20.426;2023-07-24T08:32:19;98694.81;;;28.15;44.96
52745;BME280;38637;49.984;20.426;2023-07-24T08:34:45;98700.03;;;28.21;45.19
52745;BME280;38637;49.984;20.426;2023-07-24T08:37:11;98694.84;;;28.23;45.86
52745;BME280;38637;49.984;20.426;2023-07-24T08:39:37;98682.78;;;28.22;44.45
52745;BME280;38637;49.984;20.426;2023-07-24T08:42:12;98679.97;;;28.22;44.13
52745;BME280;38637;49.984;20.426;2023-07-24T08:44:38;98684.41;;;28.23;44.60
52745;BME280;38637;49.984;20.426;2023-07-24T08:47:04;98661.53;;;28.14;44.12
52745;BME280;38637;49.984;20.426;2023-07-24T08:49:30;98670.75;;;28.14;45.23
52745;BME280;38637;49.984;20.426;2023-07-24T08:51:56;98665.94;;;28.18;43.70
52745;BME280;38637;49.984;20.426;2023-07-24T08:54:23;98653.50;;;28.16;42.86
52745;BME280;38637;49.984;20.426;2023-07-24T08:56:50;98661.91;;;28.12;42.81
52745;BME280;38637;49.984;20.426;2023-07-24T08:59:17;98656.69;;;28.07;42.46
52745;BME280;38637;49.984;20.426;2023-07-24T09:01:43;98661.94;;;28.20;43.76
52745;BME280;38637;49.984;20.426;2023-07-24T09:04:09;98652.31;;;28.24;44.12
52745;BME280;38637;49.984;20.426;2023-07-24T09:06:34;98647.13;;;28.26;43.06
52745;BME280;38637;49.984;20.426;2023-07-24T09:09:01;98646.72;;;28.35;44.19
52745;BME280;38637;49.984;20.426;2023-07-24T09:11:26;98650.00;;;28.44;43.60
52745;BME280;38637;49.984;20.426;2023-07-24T09:13:51;98652.78;;;28.51;44.55
52745;BME280;38637;49.984;20.426;2023-07-24T09:16:24;98658.81;;;28.60;44.38
52745;BME280;38637;49.984;20.426;2023-07-24T09:18:50;98652.41;;;28.67;43.43
52745;BME280;38637;49.984;20.426;2023-07-24T09:21:31;98645.59;;;28.72;44.46
52745;BME280;38637;49.984;20.426;2023-07-24T09:23:57;98629.91;;;28.67;42.16
52745;BME280;38637;49.984;20.426;2023-07-24T09:26:23;98626.31;;;28.70;42.38
52745;BME280;38637;49.984;20.426;2023-07-24T09:28:52;98621.47;;;28.74;43.45
52745;BME280;38637;49.984;20.426;2023-07-24T09:31:18;98622.28;;;28.71;41.87
52745;BME280;38637;49.984;20.426;2023-07-24T09:33:43;98605.44;;;28.71;40.76
52745;BME280;38637;49.984;20.426;2023-07-24T09:36:09;98608.66;;;28.62;40.79
52745;BME280;38637;49.984;20.426;2023-07-24T09:38:40;98605.03;;;28.73;40.45
52745;BME280;38637;49.984;20.426;2023-07-24T09:41:06;98611.06;;;28.82;40.76
52745;BME280;38637;49.984;20.426;2023-07-24T09:43:32;98611.84;;;28.86;40.54
52745;BME280;38637;49.984;20.426;2023-07-24T09:45:58;98617.09;;;29.02;41.91
52745;BME280;38637;49.984;20.426;2023-07-24T09:48:25;98624.28;;;29.17;40.28
52745;BME280;38637;49.984;20.426;2023-07-24T09:50:58;98613.78;;;29.32;41.24
52745;BME280;38637;49.984;20.426;2023-07-24T09:53:32;98609.72;;;29.47;40.43
52745;BME280;38637;49.984;20.426;2023-07-24T09:56:01;98601.22;;;29.69;41.71
52745;BME280;38637;49.984;20.426;2023-07-24T09:58:26;98604.75;;;29.91;40.33
52745;BME280;38637;49.984;20.426;2023-07-24T10:00:53;98601.47;;;30.03;39.73
52745;BME280;38637;49.984;20.426;2023-07-24T10:03:19;98601.34;;;30.21;39.49
52745;BME280;38637;49.984;20.426;2023-07-24T10:05:46;98596.38;;;30.43;39.22
52745;BME280;38637;49.984;20.426;2023-07-24T10:08:14;98596.22;;;30.61;38.72
52745;BME280;38637;49.984;20.426;2023-07-24T10:10:39;98586.75;;;30.85;39.02
52745;BME280;38637;49.984;20.426;2023-07-24T10:13:06;98590.25;;;31.00;39.01
52745;BME280;38637;49.984;20.426;2023-07-24T10:15:32;98580.38;;;31.19;38.08
52745;BME280;38637;49.984;20.426;2023-07-24T10:18:06;98572.56;;;31.34;37.32
52745;BME280;38637;49.984;20.426;2023-07-24T10:20:38;98580.94;;;31.45;36.38
52745;BME280;38637;49.984;20.426;2023-07-24T10:23:05;98579.66;;;31.49;36.11
52745;BME280;38637;49.984;20.426;2023-07-24T10:25:32;98571.75;;;31.68;36.73
52745;BME280;38637;49.984;20.426;2023-07-24T10:28:06;98564.50;;;31.67;36.05
52745;BME280;38637;49.984;20.426;2023-07-24T10:30:37;98560.66;;;31.53;36.13
52745;BME280;38637;49.984;20.426;2023-07-24T10:33:09;98557.06;;;31.49;36.46
52745;BME280;38637;49.984;20.426;2023-07-24T10:35:51;98559.16;;;31.45;37.27
52745;BME280;38637;49.984;20.426;2023-07-24T10:38:16;98545.63;;;31.29;37.15
52745;BME280;38637;49.984;20.426;2023-07-24T10:40:44;98554.81;;;30.99;38.64
52745;BME280;38637;49.984;20.426;2023-07-24T10:43:11;98554.72;;;30.65;38.38
52745;BME280;38637;49.984;20.426;2023-07-24T10:45:39;98555.34;;;30.38;39.42
52745;BME280;38637;49.984;20.426;2023-07-24T10:48:04;98566.31;;;30.26;39.75
52745;BME280;38637;49.984;20.426;2023-07-24T10:50:43;98566.81;;;30.10;40.77
52745;BME280;38637;49.984;20.426;2023-07-24T10:53:10;98571.75;;;29.95;40.71
52745;BME280;38637;49.984;20.426;2023-07-24T10:55:36;98572.22;;;29.83;41.60
52745;BME280;38637;49.984;20.426;2023-07-24T10:58:01;98569.84;;;29.74;40.59
52745;BME280;38637;49.984;20.426;2023-07-24T11:00:27;98576.72;;;29.69;40.76
52745;BME280;38637;49.984;20.426;2023-07-24T11:02:55;98571.44;;;29.75;39.67
52745;BME280;38637;49.984;20.426;2023-07-24T11:05:22;98581.44;;;29.83;40.06
52745;BME280;38637;49.984;20.426;2023-07-24T11:07:48;98589.38;;;30.03;40.17
52745;BME280;38637;49.984;20.426;2023-07-24T11:10:14;98578.75;;;30.32;39.64
52745;BME280;38637;49.984;20.426;2023-07-24T11:12:39;98578.59;;;30.53;38.74
52745;BME280;38637;49.984;20.426;2023-07-24T11:15:05;98563.19;;;30.65;39.35
52745;BME280;38637;49.984;20.426;2023-07-24T11:17:37;98557.50;;;30.68;38.92
52745;BME280;38637;49.984;20.426;2023-07-24T11:20:15;98558.75;;;30.64;39.63
52745;BME280;38637;49.984;20.426;2023-07-24T11:22:42;98563.34;;;30.47;39.15
52745;BME280;38637;49.984;20.426;2023-07-24T11:25:09;98560.25;;;30.27;39.76
52745;BME280;38637;49.984;20.426;2023-07-24T11:27:44;98557.19;;;30.07;40.35
52745;BME280;38637;49.984;20.426;2023-07-24T11:30:11;98543.59;;;29.95;40.89
52745;BME280;38637;49.984;20.426;2023-07-24T11:32:40;98536.69;;;30.03;41.17
52745;BME280;38637;49.984;20.426;2023-07-24T11:35:06;98534.19;;;30.16;41.35
52745;BME280;38637;49.984;20.426;2023-07-24T11:37:32;98537.66;;;30.38;41.52
52745;BME280;38637;49.984;20.426;2023-07-24T11:39:59;98536.72;;;30.55;40.63
52745;BME280;38637;49.984;20.426;2023-07-24T11:42:26;98538.13;;;30.78;41.37
52745;BME280;38637;49.984;20.426;2023-07-24T11:44:52;98538.72;;;30.96;39.14
52745;BME280;38637;49.984;20.426;2023-07-24T11:47:17;98538.25;;;31.05;39.26
52745;BME280;38637;49.984;20.426;2023-07-24T11:49:43;98530.47;;;31.12;40.28
52745;BME280;38637;49.984;20.426;2023-07-24T11:52:13;98535.28;;;31.16;40.53
52745;BME280;38637;49.984;20.426;2023-07-24T11:54:39;98534.94;;;31.10;40.32
52745;BME280;38637;49.984;20.426;2023-07-24T11:57:14;98533.06;;;31.00;40.12
52745;BME280;38637;49.984;20.426;2023-07-24T11:59:41;98525.88;;;30.91;39.81
52745;BME280;38637;49.984;20.426;2023-07-24T12:02:08;98530.66;;;30.98;39.77
52745;BME280;38637;49.984;20.426;2023-07-24T12:04:34;98539.69;;;31.20;41.01
52745;BME280;38637;49.984;20.426;2023-07-24T12:06:59;98518.69;;;31.55;40.37
52745;BME280;38637;49.984;20.426;2023-07-24T12:09:29;98525.03;;;31.94;39.30
52745;BME280;38637;49.984;20.426;2023-07-24T12:11:58;98526.69;;;31.91;38.96
52745;BME280;38637;49.984;20.426;2023-07-24T12:14:23;98527.50;;;31.88;37.41
52745;BME280;38637;49.984;20.426;2023-07-24T12:16:48;98508.88;;;31.94;37.76
52745;BME280;38637;49.984;20.426;2023-07-24T12:19:14;98508.22;;;31.83;35.96
52745;BME280;38637;49.984;20.426;2023-07-24T12:21:39;98494.38;;;31.65;37.09
52745;BME280;38637;49.984;20.426;2023-07-24T12:24:04;98493.28;;;31.55;35.22
52745;BME280;38637;49.984;20.426;2023-07-24T12:26:30;98489.53;;;31.66;35.97
52745;BME280;38637;49.984;20.426;2023-07-24T12:28:55;98487.19;;;31.88;35.89
52745;BME280;38637;49.984;20.426;2023-07-24T12:31:20;98479.31;;;32.26;34.70
52745;BME280;38637;49.984;20.426;2023-07-24T12:33:46;98471.16;;;32.55;34.48
52745;BME280;38637;49.984;20.426;2023-07-24T12:36:11;98469.50;;;32.58;33.85
52745;BME280;38637;49.984;20.426;2023-07-24T12:38:36;98467.78;;;32.64;34.83
52745;BME280;38637;49.984;20.426;2023-07-24T12:41:01;98460.38;;;32.70;35.08
52745;BME280;38637;49.984;20.426;2023-07-24T12:43:26;98465.53;;;32.75;34.87
52745;BME280;38637;49.984;20.426;2023-07-24T12:45:52;98458.28;;;32.74;35.48
52745;BME280;38637;49.984;20.426;2023-07-24T12:48:17;98461.56;;;32.72;35.85
52745;BME280;38637;49.984;20.426;2023-07-24T12:50:42;98451.75;;;32.57;33.72